createdAt,value
2023-02-27T00:00:42.517Z,99.9
2023-02-27T00:05:42.541Z,99.9
2023-02-27T00:08:12.585Z,99.9
2023-02-27T00:15:42.678Z,99.9
2023-02-27T00:18:12.674Z,99.9
2023-02-27T00:25:42.744Z,99.9
2023-02-27T00:28:12.739Z,99.9
2023-02-27T00:30:42.835Z,99.9
2023-02-27T00:33:12.817Z,99.9
2023-02-27T00:35:42.818Z,99.9
2023-02-27T00:38:12.862Z,99.9
2023-02-27T00:40:42.868Z,99.9
2023-02-27T00:43:12.883Z,99.9
2023-02-27T00:48:12.947Z,99.9
2023-02-27T00:50:42.975Z,99.9
2023-02-27T00:53:12.981Z,99.9
2023-02-27T00:58:13.038Z,99.9
2023-02-27T01:00:43.129Z,99.9
2023-02-27T01:03:13.080Z,99.9
2023-02-27T01:08:13.144Z,99.9
2023-02-27T01:10:43.170Z,99.9
2023-02-27T01:13:13.186Z,99.9
2023-02-27T01:15:43.219Z,99.9
2023-02-27T01:23:13.285Z,99.9
2023-02-27T01:25:43.315Z,99.9
2023-02-27T01:33:13.380Z,99.9
2023-02-27T01:35:43.409Z,99.9
2023-02-27T01:38:13.435Z,99.9
2023-02-27T01:40:43.445Z,99.9
2023-02-27T01:45:43.561Z,99.9
2023-02-27T01:48:13.513Z,99.9
2023-02-27T01:50:43.568Z,99.9
2023-02-27T01:58:13.625Z,99.9
2023-02-27T02:00:43.632Z,99.9
2023-02-27T02:03:13.666Z,99.9
2023-02-27T02:05:43.690Z,99.9
2023-02-27T02:15:43.811Z,99.9
2023-02-27T02:20:43.837Z,99.9
2023-02-27T02:23:13.838Z,99.9
2023-02-27T02:25:43.868Z,99.9
2023-02-27T02:35:43.965Z,99.9
2023-02-27T02:38:13.990Z,99.9
2023-02-27T02:40:44.073Z,99.9
2023-02-27T02:43:14.052Z,99.9
2023-02-27T02:45:46.166Z,99.9
2023-02-27T02:48:14.097Z,99.9
2023-02-27T02:50:44.125Z,99.9
2023-02-27T02:55:44.182Z,99.9
2023-02-27T02:58:14.192Z,99.9
2023-02-27T03:00:44.233Z,99.9
2023-02-27T03:03:14.259Z,99.9
2023-02-27T03:05:44.278Z,99.9
2023-02-27T03:08:14.280Z,99.9
2023-02-27T03:13:14.368Z,99.9
2023-02-27T03:15:44.357Z,99.9
2023-02-27T03:23:14.426Z,99.9
2023-02-27T03:30:44.601Z,99.9
2023-02-27T03:33:14.518Z,99.9
2023-02-27T03:35:44.549Z,99.9
2023-02-27T03:40:44.631Z,99.9
2023-02-27T03:43:14.615Z,99.9
2023-02-27T03:45:44.640Z,99.9
2023-02-27T03:48:14.687Z,99.9
2023-02-27T03:50:44.699Z,99.9
2023-02-27T03:55:44.765Z,99.9
2023-02-27T04:00:44.849Z,99.9
2023-02-27T04:08:14.878Z,99.9
2023-02-27T04:10:44.883Z,99.9
2023-02-27T04:15:44.956Z,99.9
2023-02-27T04:18:14.983Z,99.9
2023-02-27T04:23:14.999Z,99.9
2023-02-27T04:25:45.041Z,99.9
2023-02-27T04:28:15.057Z,99.9
2023-02-27T04:30:45.156Z,99.9
2023-02-27T04:33:15.109Z,99.9
2023-02-27T04:35:45.147Z,99.9
2023-02-27T04:40:45.193Z,99.9
2023-02-27T04:43:15.225Z,99.9
2023-02-27T04:45:45.294Z,99.9
2023-02-27T04:50:45.291Z,99.9
2023-02-27T04:55:45.369Z,99.9
2023-02-27T04:58:15.349Z,99.9
2023-02-27T05:03:15.402Z,99.9
2023-02-27T05:08:15.441Z,99.9
2023-02-27T05:13:15.490Z,99.9
2023-02-27T05:15:45.550Z,99.9
2023-02-27T05:20:45.554Z,99.9
2023-02-27T05:23:15.590Z,99.9
2023-02-27T05:25:45.641Z,99.9
2023-02-27T05:28:15.628Z,99.9
2023-02-27T05:30:45.658Z,99.9
2023-02-27T05:33:15.679Z,99.9
2023-02-27T05:35:45.792Z,99.9
2023-02-27T05:38:15.730Z,99.9
2023-02-27T05:40:45.758Z,99.9
2023-02-27T05:43:15.787Z,99.9
2023-02-27T05:45:45.878Z,99.9
2023-02-27T05:48:17.793Z,99.9
2023-02-27T05:53:15.896Z,99.9
2023-02-27T05:58:15.937Z,99.9
2023-02-27T06:00:45.960Z,99.9
2023-02-27T06:03:16.029Z,99.9
2023-02-27T06:05:46.010Z,99.9
2023-02-27T06:08:16.015Z,99.9
2023-02-27T06:13:16.056Z,99.9
2023-02-27T06:18:16.121Z,99.9
2023-02-27T06:25:46.179Z,99.9
2023-02-27T06:28:16.222Z,99.9
2023-02-27T06:30:46.513Z,99.9
2023-02-27T06:33:16.249Z,99.9
2023-02-27T06:35:46.308Z,99.9
2023-02-27T06:38:16.322Z,99.9
2023-02-27T06:40:46.328Z,99.9
2023-02-27T06:43:16.358Z,99.9
2023-02-27T06:45:46.384Z,99.9
2023-02-27T06:48:16.413Z,99.9
2023-02-27T06:55:46.484Z,99.9
2023-02-27T07:00:46.532Z,99.9
2023-02-27T07:03:16.549Z,99.9
2023-02-27T07:05:46.566Z,99.9
2023-02-27T07:13:19.313Z,99.9
2023-02-27T07:15:46.745Z,99.9
2023-02-27T07:23:16.725Z,99.9
2023-02-27T07:25:46.784Z,99.9
2023-02-27T07:28:16.807Z,99.9
2023-02-27T07:30:46.862Z,99.9
2023-02-27T07:33:16.842Z,99.9
2023-02-27T07:35:46.911Z,99.9
2023-02-27T07:38:16.879Z,99.9
2023-02-27T07:40:46.930Z,99.9
2023-02-27T07:45:46.971Z,99.9
2023-02-27T07:48:16.996Z,99.9
2023-02-27T07:50:47.001Z,99.9
2023-02-27T07:58:17.083Z,99.9
2023-02-27T08:03:17.142Z,99.9
2023-02-27T08:05:47.162Z,99.9
2023-02-27T08:10:47.212Z,99.9
2023-02-27T08:13:24.955Z,99.9
2023-02-27T08:15:47.335Z,99.9
2023-02-27T08:18:17.270Z,99.9
2023-02-27T08:20:47.291Z,99.9
2023-02-27T08:23:17.320Z,99.9
2023-02-27T08:25:47.348Z,99.9
2023-02-27T08:28:17.387Z,99.9
2023-02-27T08:30:47.402Z,99.9
2023-02-27T08:33:17.430Z,99.9
2023-02-27T08:38:17.459Z,99.9
2023-02-27T08:40:47.514Z,99.9
2023-02-27T08:43:17.520Z,99.9
2023-02-27T08:45:47.619Z,99.9
2023-02-27T08:50:47.614Z,99.9
2023-02-27T08:53:17.600Z,99.9
2023-02-27T08:55:47.636Z,99.9
2023-02-27T09:00:47.766Z,99.9
2023-02-27T09:03:17.699Z,99.9
2023-02-27T09:05:47.717Z,99.9
2023-02-27T09:08:17.752Z,99.9
2023-02-27T09:13:17.797Z,99.9
2023-02-27T09:15:47.849Z,99.9
2023-02-27T09:18:17.836Z,99.9
2023-02-27T09:20:47.866Z,99.9
2023-02-27T09:23:17.895Z,99.9
2023-02-27T09:25:47.928Z,99.9
2023-02-27T09:28:17.938Z,99.9
2023-02-27T09:30:47.950Z,99.9
2023-02-27T09:33:17.969Z,99.9
2023-02-27T09:35:48.078Z,99.9
2023-02-27T09:38:18.022Z,99.9
2023-02-27T09:43:18.090Z,99.9
2023-02-27T09:45:48.144Z,99.9
2023-02-27T09:48:18.143Z,99.9
2023-02-27T09:50:48.142Z,99.9
2023-02-27T10:03:18.362Z,99.9
2023-02-27T10:08:18.309Z,99.9
2023-02-27T10:15:48.379Z,99.9
2023-02-27T10:18:26.930Z,99.9
2023-02-27T10:20:48.422Z,99.9
2023-02-27T10:23:18.452Z,99.9
2023-02-27T10:25:48.479Z,99.9
2023-02-27T10:28:18.490Z,99.9
2023-02-27T10:30:48.593Z,99.9
2023-02-27T10:33:18.571Z,99.9
2023-02-27T10:35:48.610Z,99.9
2023-02-27T10:38:18.598Z,99.9
2023-02-27T10:40:48.630Z,99.9
2023-02-27T10:43:18.647Z,99.9
2023-02-27T10:45:48.801Z,99.9
2023-02-27T10:50:48.706Z,99.9
2023-02-27T10:55:48.758Z,98.5
2023-02-27T10:58:18.763Z,98
2023-02-27T11:00:48.811Z,97.6
2023-02-27T11:03:18.819Z,97.2
2023-02-27T11:05:48.852Z,97.6
2023-02-27T11:08:18.883Z,97.1
2023-02-27T11:10:48.915Z,95.9
2023-02-27T11:13:18.914Z,94.3
2023-02-27T11:15:48.982Z,93.5
2023-02-27T11:18:18.998Z,91.8
2023-02-27T11:20:48.977Z,91.8
2023-02-27T11:23:19.011Z,91.5
2023-02-27T11:25:49.030Z,90.1
2023-02-27T11:28:19.052Z,90.2
2023-02-27T11:33:19.102Z,89.1
2023-02-27T11:35:49.134Z,87.2
2023-02-27T11:38:19.149Z,87.1
2023-02-27T11:43:19.214Z,88
2023-02-27T11:46:04.602Z,88.2
2023-02-27T11:50:49.267Z,86.5
2023-02-27T11:53:19.296Z,82.9
2023-02-27T11:55:49.323Z,81.19
2023-02-27T11:58:19.363Z,80
2023-02-27T12:00:49.389Z,78
2023-02-27T12:03:19.396Z,75.8
2023-02-27T12:05:49.449Z,75.69
2023-02-27T12:08:19.449Z,75.19
2023-02-27T12:10:49.464Z,74.6
2023-02-27T12:13:19.501Z,74
2023-02-27T12:15:49.587Z,73.9
2023-02-27T12:18:19.529Z,74.4
2023-02-27T12:23:19.569Z,76
2023-02-27T12:25:49.599Z,74.1
2023-02-27T12:28:19.633Z,73.6
2023-02-27T12:33:19.663Z,72.1
2023-02-27T12:38:19.727Z,71.9
2023-02-27T12:40:49.750Z,71.9
2023-02-27T12:45:49.849Z,71.69
2023-02-27T12:48:19.816Z,71.6
2023-02-27T12:50:49.830Z,71.4
2023-02-27T12:55:49.891Z,70.6
2023-02-27T12:58:19.929Z,70.4
2023-02-27T13:00:49.958Z,70.6
2023-02-27T13:05:57.004Z,70.4
2023-02-27T13:08:20.038Z,70.5
2023-02-27T13:10:50.025Z,70.6
2023-02-27T13:13:20.052Z,69.5
2023-02-27T13:15:50.075Z,69.8
2023-02-27T13:18:21.140Z,69.5
2023-02-27T13:20:50.134Z,69.6
2023-02-27T13:23:20.154Z,69.8
2023-02-27T13:28:20.217Z,70.4
2023-02-27T13:30:50.201Z,70.5
2023-02-27T13:33:20.351Z,70.5
2023-02-27T13:40:50.302Z,67.6
2023-02-27T13:48:20.371Z,66.19
2023-02-27T13:50:50.439Z,65.9
2023-02-27T13:53:20.431Z,65.19
2023-02-27T13:55:50.436Z,64.69
2023-02-27T14:00:50.496Z,63.5
2023-02-27T14:03:20.618Z,63
2023-02-27T14:05:50.565Z,62.9
2023-02-27T14:13:20.633Z,61.3
2023-02-27T14:23:20.717Z,61.7
2023-02-27T14:28:20.742Z,64
2023-02-27T14:30:50.865Z,64.8
2023-02-27T14:33:33.289Z,65.4
2023-02-27T14:35:50.893Z,65.4
2023-02-27T14:38:20.845Z,65.4
2023-02-27T14:40:50.858Z,65.3
2023-02-27T14:43:20.882Z,64.69
2023-02-27T14:45:50.956Z,63.5
2023-02-27T14:48:20.934Z,61.8
2023-02-27T14:53:20.978Z,61.1
2023-02-27T14:55:51.015Z,54.6
2023-02-27T14:58:21.024Z,53.2
2023-02-27T15:00:51.064Z,49.1
2023-02-27T15:03:21.090Z,48.7
2023-02-27T15:05:51.116Z,47.2
2023-02-27T15:08:21.111Z,46.7
2023-02-27T15:10:51.149Z,45.5
2023-02-27T15:13:21.163Z,44
2023-02-27T15:15:51.267Z,42.5
2023-02-27T15:18:21.229Z,42.5
2023-02-27T15:20:51.278Z,42.1
2023-02-27T15:23:21.272Z,41.7
2023-02-27T15:25:51.330Z,41.9
2023-02-27T15:28:21.301Z,48.5
2023-02-27T15:30:51.434Z,49.8
2023-02-27T15:33:21.358Z,53.5
2023-02-27T15:35:51.468Z,54.1
2023-02-27T15:38:21.396Z,55.6
2023-02-27T15:40:51.426Z,55.8
2023-02-27T15:43:21.473Z,57.4
2023-02-27T15:45:51.468Z,57.4
2023-02-27T15:48:21.504Z,48
2023-02-27T15:50:51.512Z,48
2023-02-27T15:53:21.603Z,47.9
2023-02-27T15:55:51.571Z,46.4
2023-02-27T15:58:21.688Z,46.4
2023-02-27T16:00:51.601Z,45.9
2023-02-27T16:03:21.628Z,46.6
2023-02-27T16:05:51.785Z,50.5
2023-02-27T16:08:21.680Z,52.4
2023-02-27T16:13:21.742Z,53.6
2023-02-27T16:15:51.803Z,47.3
2023-02-27T16:18:21.780Z,46.4
2023-02-27T16:20:51.804Z,47
2023-02-27T16:23:21.826Z,52
2023-02-27T16:25:51.851Z,54.3
2023-02-27T16:28:21.868Z,58
2023-02-27T16:30:51.895Z,58.6
2023-02-27T16:33:21.914Z,58.8
2023-02-27T16:35:51.997Z,59.5
2023-02-27T16:38:21.969Z,60.1
2023-02-27T16:40:52.103Z,61.4
2023-02-27T16:43:22.027Z,61.7
2023-02-27T16:45:52.150Z,62.3
2023-02-27T16:48:22.066Z,62.9
2023-02-27T16:50:52.080Z,64
2023-02-27T16:53:22.112Z,64.4
2023-02-27T16:55:52.166Z,64.9
2023-02-27T16:58:22.167Z,65.5
2023-02-27T17:00:52.262Z,66.1
2023-02-27T17:03:22.220Z,67.19
2023-02-27T17:05:52.244Z,68.19
2023-02-27T17:08:22.262Z,70.19
2023-02-27T17:13:22.331Z,73.6
2023-02-27T17:15:52.327Z,74.4
2023-02-27T17:18:22.367Z,76.5
2023-02-27T17:20:52.374Z,95.7
2023-02-27T17:25:52.431Z,97.8
2023-02-27T17:28:22.461Z,98.2
2023-02-27T17:30:52.491Z,98.8
2023-02-27T17:33:22.510Z,91
2023-02-27T17:35:52.539Z,91.1
2023-02-27T17:38:22.560Z,91.4
2023-02-27T17:40:52.577Z,92.2
2023-02-27T17:43:22.587Z,92.7
2023-02-27T17:48:22.647Z,94.8
2023-02-27T17:50:52.653Z,95.3
2023-02-27T17:53:22.681Z,95.8
2023-02-27T17:55:52.742Z,96.5
2023-02-27T17:58:22.729Z,96.9
2023-02-27T18:00:52.745Z,97.4
2023-02-27T18:05:52.816Z,98.3
2023-02-27T18:08:22.837Z,98.6
2023-02-27T18:13:22.884Z,98.9
2023-02-27T18:18:22.931Z,99.5
2023-02-27T18:20:52.938Z,99.7
2023-02-27T18:23:22.983Z,99.8
2023-02-27T18:25:53.005Z,99.8
2023-02-27T18:28:23.010Z,99.9
2023-02-27T18:30:53.141Z,99.9
2023-02-27T18:33:23.060Z,99.9
2023-02-27T18:35:53.177Z,99.9
2023-02-27T18:38:23.112Z,99.9
2023-02-27T18:40:53.133Z,99.9
2023-02-27T18:43:23.187Z,99.9
2023-02-27T18:45:53.180Z,99.9
2023-02-27T18:48:23.200Z,99.9
2023-02-27T18:50:53.298Z,99.9
2023-02-27T18:53:23.252Z,99.9
2023-02-27T18:55:53.270Z,99.9
2023-02-27T18:58:23.317Z,99.9
2023-02-27T19:00:53.331Z,99.9
2023-02-27T19:03:23.417Z,99.9
2023-02-27T19:05:53.375Z,99.9
2023-02-27T19:08:23.389Z,99.9
2023-02-27T19:10:53.434Z,99.9
2023-02-27T19:13:23.446Z,99.9
2023-02-27T19:18:23.492Z,99.9
2023-02-27T19:20:54.873Z,99.9
2023-02-27T19:23:23.533Z,99.9
2023-02-27T19:28:23.587Z,99.9
2023-02-27T19:30:53.601Z,99.9
2023-02-27T19:33:23.634Z,99.9
2023-02-27T19:35:53.739Z,99.9
2023-02-27T19:38:23.695Z,99.9
2023-02-27T19:40:53.735Z,99.9
2023-02-27T19:43:23.726Z,99.9
2023-02-27T19:45:53.793Z,99.9
2023-02-27T19:48:23.780Z,99.9
2023-02-27T19:50:53.791Z,99.9
2023-02-27T19:55:53.861Z,99.9
2023-02-27T19:58:23.856Z,99.9
2023-02-27T20:00:53.918Z,99.9
2023-02-27T20:03:23.909Z,99.9
2023-02-27T20:08:23.953Z,99.9
2023-02-27T20:13:24.026Z,99.9
2023-02-27T20:15:54.049Z,99.9
2023-02-27T20:18:24.069Z,99.9
2023-02-27T20:25:54.122Z,99.9
2023-02-27T20:30:54.194Z,99.9
2023-02-27T20:33:24.203Z,99.9
2023-02-27T20:35:54.293Z,99.9
2023-02-27T20:38:24.243Z,99.9
2023-02-27T20:40:54.284Z,99.9
2023-02-27T20:45:54.339Z,99.9
2023-02-27T20:48:24.358Z,99.9
2023-02-27T20:50:54.366Z,99.9
2023-02-27T20:53:26.262Z,99.9
2023-02-27T20:58:24.453Z,99.9
2023-02-27T21:00:54.514Z,99.9
2023-02-27T21:03:25.246Z,99.9
2023-02-27T21:05:54.524Z,99.9
2023-02-27T21:08:24.559Z,99.9
2023-02-27T21:13:24.593Z,99.9
2023-02-27T21:15:54.676Z,99.9
2023-02-27T21:18:24.672Z,99.9
2023-02-27T21:23:24.695Z,99.9
2023-02-27T21:25:54.721Z,99.9
2023-02-27T21:28:24.738Z,99.9
2023-02-27T21:30:54.927Z,99.9
2023-02-27T21:33:24.788Z,99.9
2023-02-27T21:35:54.807Z,99.9
2023-02-27T21:40:54.852Z,99.9
2023-02-27T21:43:24.866Z,99.9
2023-02-27T21:45:54.926Z,99.9
2023-02-27T21:48:24.921Z,99.9
2023-02-27T21:50:54.960Z,99.9
2023-02-27T21:53:25.017Z,99.9
2023-02-27T21:55:55.007Z,99.9
2023-02-27T22:00:55.053Z,99.9
2023-02-27T22:03:25.071Z,99.9
2023-02-27T22:05:55.116Z,99.9
2023-02-27T22:08:25.105Z,99.9
2023-02-27T22:13:25.156Z,99.9
2023-02-27T22:15:55.232Z,99.9
2023-02-27T22:18:25.222Z,99.9
2023-02-27T22:20:55.241Z,99.9
2023-02-27T22:25:55.283Z,99.9
2023-02-27T22:28:25.303Z,99.9
2023-02-27T22:30:55.398Z,99.9
2023-02-27T22:33:25.374Z,99.9
2023-02-27T22:35:55.442Z,99.9
2023-02-27T22:38:25.424Z,99.9
2023-02-27T22:40:55.438Z,99.9
2023-02-27T22:45:55.479Z,99.9
2023-02-27T22:48:25.504Z,99.9
2023-02-27T22:50:55.544Z,99.9
2023-02-27T22:58:25.581Z,99.9
2023-02-27T23:00:55.631Z,99.9
2023-02-27T23:03:25.701Z,99.9
2023-02-27T23:08:25.682Z,99.9
2023-02-27T23:10:55.718Z,99.9
2023-02-27T23:13:25.762Z,99.9
2023-02-27T23:15:55.807Z,99.9
2023-02-27T23:18:25.793Z,99.9
2023-02-27T23:20:55.799Z,99.9
2023-02-27T23:23:25.831Z,99.9
2023-02-27T23:25:55.845Z,99.9
2023-02-27T23:28:25.883Z,99.9
2023-02-27T23:33:25.934Z,99.9
2023-02-27T23:35:56.030Z,99.9
2023-02-27T23:38:25.968Z,99.9
2023-02-27T23:40:55.999Z,99.9
2023-02-27T23:43:26.029Z,99.9
2023-02-27T23:48:26.086Z,99.9
2023-02-27T23:50:56.085Z,99.9
2023-02-27T23:53:26.124Z,99.9
2023-02-27T23:58:26.171Z,99.9
